sensor_id;sensor_type;location;lat;lon;timestamp;P1;durP1;ratioP1;P2;durP2;ratioP2
47273;SDS011;33007;49.082;19.306;2022-10-31T00:00:59;49.17;;;24.08;;
47273;SDS011;33007;49.082;19.306;2022-10-31T00:03:24;48.35;;;25.15;;
47273;SDS011;33007;49.082;19.306;2022-10-31T00:05:51;37.25;;;23.40;;
47273;SDS011;33007;49.082;19.306;2022-10-31T00:08:17;36.03;;;22.33;;
47273;SDS011;33007;49.082;19.306;2022-10-31T00:10:44;49.72;;;23.40;;
47273;SDS011;33007;49.082;19.306;2022-10-31T00:13:11;59.30;;;23.00;;
47273;SDS011;33007;49.082;19.306;2022-10-31T00:15:38;39.28;;;23.70;;
47273;SDS011;33007;49.082;19.306;2022-10-31T00:18:05;87.75;;;28.02;;
47273;SDS011;33007;49.082;19.306;2022-10-31T00:20:32;40.40;;;22.08;;
47273;SDS011;33007;49.082;19.306;2022-10-31T00:23:00;34.72;;;20.45;;
47273;SDS011;33007;49.082;19.306;2022-10-31T00:25:27;49.13;;;21.03;;
47273;SDS011;33007;49.082;19.306;2022-10-31T00:27:54;39.38;;;21.05;;
47273;SDS011;33007;49.082;19.306;2022-10-31T00:30:20;58.40;;;22.92;;
47273;SDS011;33007;49.082;19.306;2022-10-31T00:32:46;46.80;;;21.17;;
47273;SDS011;33007;49.082;19.306;2022-10-31T00:35:11;28.58;;;20.90;;
47273;SDS011;33007;49.082;19.306;2022-10-31T00:37:37;32.63;;;21.17;;
47273;SDS011;33007;49.082;19.306;2022-10-31T00:40:03;53.88;;;23.77;;
47273;SDS011;33007;49.082;19.306;2022-10-31T00:42:29;37.40;;;21.60;;
47273;SDS011;33007;49.082;19.306;2022-10-31T00:44:55;55.78;;;22.95;;
47273;SDS011;33007;49.082;19.306;2022-10-31T00:47:20;42.25;;;20.52;;
47273;SDS011;33007;49.082;19.306;2022-10-31T00:49:46;60.00;;;23.05;;
47273;SDS011;33007;49.082;19.306;2022-10-31T00:52:12;45.47;;;21.40;;
47273;SDS011;33007;49.082;19.306;2022-10-31T00:54:37;39.17;;;19.10;;
47273;SDS011;33007;49.082;19.306;2022-10-31T00:57:03;45.92;;;20.05;;
47273;SDS011;33007;49.082;19.306;2022-10-31T00:59:28;79.40;;;22.17;;
47273;SDS011;33007;49.082;19.306;2022-10-31T01:01:54;21.30;;;17.45;;
47273;SDS011;33007;49.082;19.306;2022-10-31T01:04:20;26.83;;;16.83;;
47273;SDS011;33007;49.082;19.306;2022-10-31T01:06:45;27.58;;;16.90;;
47273;SDS011;33007;49.082;19.306;2022-10-31T01:09:11;57.17;;;18.80;;
47273;SDS011;33007;49.082;19.306;2022-10-31T01:11:37;124.25;;;24.27;;
47273;SDS011;33007;49.082;19.306;2022-10-31T01:14:02;30.02;;;18.40;;
47273;SDS011;33007;49.082;19.306;2022-10-31T01:16:28;25.13;;;17.42;;
47273;SDS011;33007;49.082;19.306;2022-10-31T01:18:54;27.25;;;17.20;;
47273;SDS011;33007;49.082;19.306;2022-10-31T01:21:25;22.27;;;15.98;;
47273;SDS011;33007;49.082;19.306;2022-10-31T01:23:53;24.17;;;15.20;;
47273;SDS011;33007;49.082;19.306;2022-10-31T01:26:24;23.77;;;15.32;;
47273;SDS011;33007;49.082;19.306;2022-10-31T01:28:51;23.83;;;14.65;;
47273;SDS011;33007;49.082;19.306;2022-10-31T01:31:20;27.27;;;16.52;;
47273;SDS011;33007;49.082;19.306;2022-10-31T01:33:47;28.30;;;19.13;;
47273;SDS011;33007;49.082;19.306;2022-10-31T01:39:13;43.10;;;23.00;;
47273;SDS011;33007;49.082;19.306;2022-10-31T01:41:44;48.22;;;22.88;;
47273;SDS011;33007;49.082;19.306;2022-10-31T01:51:50;23.55;;;13.35;;
47273;SDS011;33007;49.082;19.306;2022-10-31T01:54:31;18.00;;;13.10;;
47273;SDS011;33007;49.082;19.306;2022-10-31T01:57:00;15.73;;;12.40;;
47273;SDS011;33007;49.082;19.306;2022-10-31T01:59:29;17.95;;;13.48;;
47273;SDS011;33007;49.082;19.306;2022-10-31T02:01:57;19.60;;;13.13;;
47273;SDS011;33007;49.082;19.306;2022-10-31T02:04:23;21.13;;;12.73;;
47273;SDS011;33007;49.082;19.306;2022-10-31T02:06:55;19.95;;;12.55;;
47273;SDS011;33007;49.082;19.306;2022-10-31T02:09:24;18.55;;;12.25;;
47273;SDS011;33007;49.082;19.306;2022-10-31T02:11:51;17.85;;;12.38;;
47273;SDS011;33007;49.082;19.306;2022-10-31T02:14:21;22.33;;;12.57;;
47273;SDS011;33007;49.082;19.306;2022-10-31T02:16:48;19.42;;;12.80;;
47273;SDS011;33007;49.082;19.306;2022-10-31T02:19:16;19.48;;;13.23;;
47273;SDS011;33007;49.082;19.306;2022-10-31T02:22:12;19.13;;;12.75;;
47273;SDS011;33007;49.082;19.306;2022-10-31T02:38:02;60.20;;;12.52;;
47273;SDS011;33007;49.082;19.306;2022-10-31T02:40:38;16.45;;;10.30;;
47273;SDS011;33007;49.082;19.306;2022-10-31T02:43:18;16.45;;;10.43;;
47273;SDS011;33007;49.082;19.306;2022-10-31T02:48:27;16.77;;;10.60;;
47273;SDS011;33007;49.082;19.306;2022-10-31T02:50:55;12.98;;;10.13;;
47273;SDS011;33007;49.082;19.306;2022-10-31T02:53:24;13.38;;;10.10;;
47273;SDS011;33007;49.082;19.306;2022-10-31T02:58:47;15.00;;;10.38;;
47273;SDS011;33007;49.082;19.306;2022-10-31T03:01:20;14.25;;;10.02;;
47273;SDS011;33007;49.082;19.306;2022-10-31T03:11:57;13.77;;;10.98;;
47273;SDS011;33007;49.082;19.306;2022-10-31T03:14:40;26.30;;;11.57;;
47273;SDS011;33007;49.082;19.306;2022-10-31T03:17:14;16.67;;;11.40;;
47273;SDS011;33007;49.082;19.306;2022-10-31T03:20:08;18.80;;;11.82;;
47273;SDS011;33007;49.082;19.306;2022-10-31T03:22:36;22.10;;;12.32;;
47273;SDS011;33007;49.082;19.306;2022-10-31T03:25:05;24.43;;;13.03;;
47273;SDS011;33007;49.082;19.306;2022-10-31T03:27:33;48.67;;;15.30;;
47273;SDS011;33007;49.082;19.306;2022-10-31T03:30:02;27.20;;;11.63;;
47273;SDS011;33007;49.082;19.306;2022-10-31T03:34:56;31.35;;;12.25;;
47273;SDS011;33007;49.082;19.306;2022-10-31T03:37:25;28.42;;;11.70;;
47273;SDS011;33007;49.082;19.306;2022-10-31T03:39:55;21.75;;;11.60;;
47273;SDS011;33007;49.082;19.306;2022-10-31T03:42:24;23.83;;;12.70;;
47273;SDS011;33007;49.082;19.306;2022-10-31T03:47:45;36.35;;;12.63;;
47273;SDS011;33007;49.082;19.306;2022-10-31T03:50:11;26.73;;;12.60;;
47273;SDS011;33007;49.082;19.306;2022-10-31T03:52:41;33.42;;;13.30;;
47273;SDS011;33007;49.082;19.306;2022-10-31T03:55:20;27.38;;;13.48;;
47273;SDS011;33007;49.082;19.306;2022-10-31T03:58:06;21.67;;;11.30;;
47273;SDS011;33007;49.082;19.306;2022-10-31T04:00:36;29.88;;;12.77;;
47273;SDS011;33007;49.082;19.306;2022-10-31T04:03:07;27.40;;;11.75;;
47273;SDS011;33007;49.082;19.306;2022-10-31T04:05:36;25.85;;;11.68;;
47273;SDS011;33007;49.082;19.306;2022-10-31T04:08:04;20.65;;;11.05;;
47273;SDS011;33007;49.082;19.306;2022-10-31T04:10:34;18.67;;;10.95;;
47273;SDS011;33007;49.082;19.306;2022-10-31T04:13:09;26.63;;;14.88;;
47273;SDS011;33007;49.082;19.306;2022-10-31T04:15:38;38.10;;;23.48;;
47273;SDS011;33007;49.082;19.306;2022-10-31T04:18:06;34.83;;;20.58;;
47273;SDS011;33007;49.082;19.306;2022-10-31T04:20:36;34.05;;;21.45;;
47273;SDS011;33007;49.082;19.306;2022-10-31T04:23:14;57.22;;;21.10;;
47273;SDS011;33007;49.082;19.306;2022-10-31T04:25:44;30.40;;;17.13;;
47273;SDS011;33007;49.082;19.306;2022-10-31T04:28:09;28.40;;;15.07;;
47273;SDS011;33007;49.082;19.306;2022-10-31T04:30:35;42.63;;;27.98;;
47273;SDS011;33007;49.082;19.306;2022-10-31T04:33:01;34.30;;;25.27;;
47273;SDS011;33007;49.082;19.306;2022-10-31T04:35:26;22.10;;;17.55;;
47273;SDS011;33007;49.082;19.306;2022-10-31T04:37:51;25.52;;;13.80;;
47273;SDS011;33007;49.082;19.306;2022-10-31T04:40:17;53.60;;;14.40;;
47273;SDS011;33007;49.082;19.306;2022-10-31T04:42:43;20.85;;;11.73;;
47273;SDS011;33007;49.082;19.306;2022-10-31T04:45:09;40.60;;;13.27;;
47273;SDS011;33007;49.082;19.306;2022-10-31T04:47:34;35.67;;;13.80;;
47273;SDS011;33007;49.082;19.306;2022-10-31T04:50:00;24.55;;;12.63;;
47273;SDS011;33007;49.082;19.306;2022-10-31T04:52:27;22.60;;;11.95;;
47273;SDS011;33007;49.082;19.306;2022-10-31T04:54:53;19.27;;;12.02;;
47273;SDS011;33007;49.082;19.306;2022-10-31T04:57:18;30.98;;;11.68;;
47273;SDS011;33007;49.082;19.306;2022-10-31T04:59:44;18.52;;;11.30;;
47273;SDS011;33007;49.082;19.306;2022-10-31T05:02:09;20.10;;;11.68;;
47273;SDS011;33007;49.082;19.306;2022-10-31T05:04:35;36.08;;;11.77;;
47273;SDS011;33007;49.082;19.306;2022-10-31T05:07:00;28.40;;;12.77;;
47273;SDS011;33007;49.082;19.306;2022-10-31T05:09:26;51.67;;;14.57;;
47273;SDS011;33007;49.082;19.306;2022-10-31T05:11:51;86.07;;;17.17;;
47273;SDS011;33007;49.082;19.306;2022-10-31T05:14:17;52.13;;;15.63;;
47273;SDS011;33007;49.082;19.306;2022-10-31T05:16:42;40.47;;;14.85;;
47273;SDS011;33007;49.082;19.306;2022-10-31T05:19:08;21.15;;;11.85;;
47273;SDS011;33007;49.082;19.306;2022-10-31T05:21:33;19.88;;;11.60;;
47273;SDS011;33007;49.082;19.306;2022-10-31T05:23:59;27.00;;;11.52;;
47273;SDS011;33007;49.082;19.306;2022-10-31T05:26:25;20.88;;;11.07;;
47273;SDS011;33007;49.082;19.306;2022-10-31T05:28:51;16.60;;;10.80;;
47273;SDS011;33007;49.082;19.306;2022-10-31T05:31:16;33.95;;;11.75;;
47273;SDS011;33007;49.082;19.306;2022-10-31T05:33:42;15.50;;;10.68;;
47273;SDS011;33007;49.082;19.306;2022-10-31T05:36:07;26.95;;;12.00;;
47273;SDS011;33007;49.082;19.306;2022-10-31T05:38:33;55.80;;;14.27;;
47273;SDS011;33007;49.082;19.306;2022-10-31T05:40:59;32.38;;;13.38;;
47273;SDS011;33007;49.082;19.306;2022-10-31T05:43:26;67.35;;;16.80;;
47273;SDS011;33007;49.082;19.306;2022-10-31T05:45:52;40.00;;;14.65;;
47273;SDS011;33007;49.082;19.306;2022-10-31T05:48:18;44.45;;;15.05;;
47273;SDS011;33007;49.082;19.306;2022-10-31T05:50:44;32.70;;;12.18;;
47273;SDS011;33007;49.082;19.306;2022-10-31T05:53:10;34.25;;;12.95;;
47273;SDS011;33007;49.082;19.306;2022-10-31T05:55:35;28.45;;;12.32;;
47273;SDS011;33007;49.082;19.306;2022-10-31T05:58:01;17.40;;;10.57;;
47273;SDS011;33007;49.082;19.306;2022-10-31T06:00:27;45.05;;;15.68;;
47273;SDS011;33007;49.082;19.306;2022-10-31T06:02:59;73.50;;;20.60;;
47273;SDS011;33007;49.082;19.306;2022-10-31T06:05:27;52.25;;;19.52;;
47273;SDS011;33007;49.082;19.306;2022-10-31T06:07:53;49.80;;;20.55;;
47273;SDS011;33007;49.082;19.306;2022-10-31T06:10:19;44.13;;;21.55;;
47273;SDS011;33007;49.082;19.306;2022-10-31T06:12:46;42.58;;;19.60;;
47273;SDS011;33007;49.082;19.306;2022-10-31T06:15:12;27.55;;;13.85;;
47273;SDS011;33007;49.082;19.306;2022-10-31T06:17:38;22.77;;;11.82;;
47273;SDS011;33007;49.082;19.306;2022-10-31T06:20:03;20.40;;;10.68;;
47273;SDS011;33007;49.082;19.306;2022-10-31T06:22:29;19.02;;;10.57;;
47273;SDS011;33007;49.082;19.306;2022-10-31T06:24:55;39.28;;;13.55;;
47273;SDS011;33007;49.082;19.306;2022-10-31T06:27:21;21.13;;;12.30;;
47273;SDS011;33007;49.082;19.306;2022-10-31T06:29:47;33.40;;;12.50;;
47273;SDS011;33007;49.082;19.306;2022-10-31T06:32:13;24.63;;;11.55;;
47273;SDS011;33007;49.082;19.306;2022-10-31T06:34:40;43.47;;;13.25;;
47273;SDS011;33007;49.082;19.306;2022-10-31T06:37:06;28.70;;;13.20;;
47273;SDS011;33007;49.082;19.306;2022-10-31T06:39:32;22.55;;;12.88;;
47273;SDS011;33007;49.082;19.306;2022-10-31T06:41:58;29.60;;;12.43;;
47273;SDS011;33007;49.082;19.306;2022-10-31T06:44:24;40.42;;;14.38;;
47273;SDS011;33007;49.082;19.306;2022-10-31T06:46:49;35.20;;;13.70;;
47273;SDS011;33007;49.082;19.306;2022-10-31T06:49:15;24.98;;;13.18;;
47273;SDS011;33007;49.082;19.306;2022-10-31T06:51:40;18.25;;;12.02;;
47273;SDS011;33007;49.082;19.306;2022-10-31T06:54:06;17.85;;;11.40;;
47273;SDS011;33007;49.082;19.306;2022-10-31T06:56:32;16.15;;;11.35;;
47273;SDS011;33007;49.082;19.306;2022-10-31T06:58:57;30.10;;;12.30;;
47273;SDS011;33007;49.082;19.306;2022-10-31T07:01:23;19.25;;;12.13;;
47273;SDS011;33007;49.082;19.306;2022-10-31T07:03:49;24.67;;;13.45;;
47273;SDS011;33007;49.082;19.306;2022-10-31T07:06:14;23.98;;;12.80;;
47273;SDS011;33007;49.082;19.306;2022-10-31T07:08:40;22.75;;;11.20;;
47273;SDS011;33007;49.082;19.306;2022-10-31T07:11:05;20.85;;;11.95;;
47273;SDS011;33007;49.082;19.306;2022-10-31T07:13:30;18.42;;;12.73;;
47273;SDS011;33007;49.082;19.306;2022-10-31T07:16:00;24.15;;;12.88;;
47273;SDS011;33007;49.082;19.306;2022-10-31T07:18:27;19.73;;;12.70;;
47273;SDS011;33007;49.082;19.306;2022-10-31T07:20:53;45.10;;;16.38;;
47273;SDS011;33007;49.082;19.306;2022-10-31T07:23:19;23.77;;;14.15;;
47273;SDS011;33007;49.082;19.306;2022-10-31T07:25:44;29.95;;;15.10;;
47273;SDS011;33007;49.082;19.306;2022-10-31T07:28:10;27.05;;;12.93;;
47273;SDS011;33007;49.082;19.306;2022-10-31T07:30:38;18.08;;;12.75;;
47273;SDS011;33007;49.082;19.306;2022-10-31T07:33:03;19.80;;;13.77;;
47273;SDS011;33007;49.082;19.306;2022-10-31T07:35:30;20.75;;;14.52;;
47273;SDS011;33007;49.082;19.306;2022-10-31T07:37:56;17.08;;;12.52;;
47273;SDS011;33007;49.082;19.306;2022-10-31T07:40:22;17.55;;;12.50;;
47273;SDS011;33007;49.082;19.306;2022-10-31T07:42:50;19.48;;;12.10;;
47273;SDS011;33007;49.082;19.306;2022-10-31T07:45:17;16.65;;;11.35;;
47273;SDS011;33007;49.082;19.306;2022-10-31T07:47:45;22.77;;;12.50;;
47273;SDS011;33007;49.082;19.306;2022-10-31T07:52:48;23.70;;;13.85;;
47273;SDS011;33007;49.082;19.306;2022-10-31T07:55:22;19.60;;;12.93;;
47273;SDS011;33007;49.082;19.306;2022-10-31T07:58:01;21.85;;;14.02;;
47273;SDS011;33007;49.082;19.306;2022-10-31T08:00:33;36.05;;;13.40;;
47273;SDS011;33007;49.082;19.306;2022-10-31T08:03:00;18.83;;;12.45;;
47273;SDS011;33007;49.082;19.306;2022-10-31T08:05:30;19.15;;;12.68;;
47273;SDS011;33007;49.082;19.306;2022-10-31T08:07:57;18.98;;;12.75;;
47273;SDS011;33007;49.082;19.306;2022-10-31T08:10:23;33.53;;;13.30;;
47273;SDS011;33007;49.082;19.306;2022-10-31T08:12:57;17.60;;;12.05;;
47273;SDS011;33007;49.082;19.306;2022-10-31T08:15:23;16.67;;;11.93;;
47273;SDS011;33007;49.082;19.306;2022-10-31T08:17:49;19.33;;;12.45;;
47273;SDS011;33007;49.082;19.306;2022-10-31T08:20:15;18.15;;;11.95;;
47273;SDS011;33007;49.082;19.306;2022-10-31T08:22:41;16.65;;;11.60;;
47273;SDS011;33007;49.082;19.306;2022-10-31T08:25:06;16.55;;;10.68;;
47273;SDS011;33007;49.082;19.306;2022-10-31T08:27:32;20.48;;;11.75;;
47273;SDS011;33007;49.082;19.306;2022-10-31T08:29:57;18.67;;;11.75;;
47273;SDS011;33007;49.082;19.306;2022-10-31T08:32:23;18.42;;;11.38;;
47273;SDS011;33007;49.082;19.306;2022-10-31T08:34:49;19.23;;;12.00;;
47273;SDS011;33007;49.082;19.306;2022-10-31T08:37:15;18.90;;;12.40;;
47273;SDS011;33007;49.082;19.306;2022-10-31T08:39:47;20.63;;;13.30;;
47273;SDS011;33007;49.082;19.306;2022-10-31T08:42:13;18.33;;;13.27;;
47273;SDS011;33007;49.082;19.306;2022-10-31T08:44:40;18.48;;;12.63;;
47273;SDS011;33007;49.082;19.306;2022-10-31T08:47:05;21.80;;;14.07;;
47273;SDS011;33007;49.082;19.306;2022-10-31T08:49:31;19.23;;;12.60;;
47273;SDS011;33007;49.082;19.306;2022-10-31T08:51:56;21.33;;;13.10;;
47273;SDS011;33007;49.082;19.306;2022-10-31T08:54:22;25.58;;;14.02;;
47273;SDS011;33007;49.082;19.306;2022-10-31T08:56:47;29.63;;;15.05;;
47273;SDS011;33007;49.082;19.306;2022-10-31T08:59:12;24.52;;;14.90;;
47273;SDS011;33007;49.082;19.306;2022-10-31T09:01:38;23.05;;;16.10;;
47273;SDS011;33007;49.082;19.306;2022-10-31T09:04:03;22.42;;;14.25;;
47273;SDS011;33007;49.082;19.306;2022-10-31T09:06:29;21.80;;;15.10;;
47273;SDS011;33007;49.082;19.306;2022-10-31T09:08:54;23.98;;;16.52;;
47273;SDS011;33007;49.082;19.306;2022-10-31T09:11:20;24.35;;;16.65;;
47273;SDS011;33007;49.082;19.306;2022-10-31T09:13:45;23.90;;;16.80;;
47273;SDS011;33007;49.082;19.306;2022-10-31T09:16:11;24.63;;;17.88;;
47273;SDS011;33007;49.082;19.306;2022-10-31T09:18:36;26.10;;;17.80;;
47273;SDS011;33007;49.082;19.306;2022-10-31T09:21:02;26.20;;;18.98;;
47273;SDS011;33007;49.082;19.306;2022-10-31T09:23:27;25.67;;;18.60;;
47273;SDS011;33007;49.082;19.306;2022-10-31T09:25:53;25.35;;;16.60;;
47273;SDS011;33007;49.082;19.306;2022-10-31T09:28:19;21.50;;;16.05;;
47273;SDS011;33007;49.082;19.306;2022-10-31T09:30:47;20.33;;;15.50;;
47273;SDS011;33007;49.082;19.306;2022-10-31T09:33:14;25.52;;;16.25;;
47273;SDS011;33007;49.082;19.306;2022-10-31T09:35:41;23.25;;;16.40;;
47273;SDS011;33007;49.082;19.306;2022-10-31T09:38:10;24.08;;;17.05;;
47273;SDS011;33007;49.082;19.306;2022-10-31T09:40:41;23.38;;;16.27;;
47273;SDS011;33007;49.082;19.306;2022-10-31T09:43:09;40.65;;;17.52;;
47273;SDS011;33007;49.082;19.306;2022-10-31T09:45:51;25.70;;;17.17;;
47273;SDS011;33007;49.082;19.306;2022-10-31T09:48:34;20.67;;;16.80;;
47273;SDS011;33007;49.082;19.306;2022-10-31T09:51:13;26.02;;;17.92;;
47273;SDS011;33007;49.082;19.306;2022-10-31T09:56:42;25.50;;;19.45;;
47273;SDS011;33007;49.082;19.306;2022-10-31T09:59:31;27.50;;;19.10;;
47273;SDS011;33007;49.082;19.306;2022-10-31T10:02:09;26.17;;;18.70;;
47273;SDS011;33007;49.082;19.306;2022-10-31T10:04:48;25.50;;;19.30;;
47273;SDS011;33007;49.082;19.306;2022-10-31T10:09:59;27.08;;;18.52;;
47273;SDS011;33007;49.082;19.306;2022-10-31T10:20:56;35.25;;;22.13;;
47273;SDS011;33007;49.082;19.306;2022-10-31T10:26:36;25.88;;;17.38;;
47273;SDS011;33007;49.082;19.306;2022-10-31T10:31:47;27.42;;;17.90;;
47273;SDS011;33007;49.082;19.306;2022-10-31T10:34:23;27.65;;;19.05;;
47273;SDS011;33007;49.082;19.306;2022-10-31T10:37:05;28.15;;;18.15;;
47273;SDS011;33007;49.082;19.306;2022-10-31T10:40:00;23.80;;;17.52;;
47273;SDS011;33007;49.082;19.306;2022-10-31T10:43:01;22.13;;;16.63;;
47273;SDS011;33007;49.082;19.306;2022-10-31T10:52:22;21.65;;;15.80;;
47273;SDS011;33007;49.082;19.306;2022-10-31T10:55:05;20.30;;;15.48;;
47273;SDS011;33007;49.082;19.306;2022-10-31T11:00:31;19.30;;;14.48;;
47273;SDS011;33007;49.082;19.306;2022-10-31T11:03:00;19.20;;;14.57;;
47273;SDS011;33007;49.082;19.306;2022-10-31T11:05:28;19.08;;;14.35;;
47273;SDS011;33007;49.082;19.306;2022-10-31T11:07:53;21.15;;;14.20;;
47273;SDS011;33007;49.082;19.306;2022-10-31T11:10:19;17.85;;;13.55;;
47273;SDS011;33007;49.082;19.306;2022-10-31T11:12:46;19.63;;;14.80;;
47273;SDS011;33007;49.082;19.306;2022-10-31T11:16:26;19.98;;;14.80;;
47273;SDS011;33007;49.082;19.306;2022-10-31T11:18:45;18.88;;;13.75;;
47273;SDS011;33007;49.082;19.306;2022-10-31T11:23:46;29.48;;;14.35;;
47273;SDS011;33007;49.082;19.306;2022-10-31T11:26:19;22.25;;;14.85;;
47273;SDS011;33007;49.082;19.306;2022-10-31T11:28:55;19.98;;;14.00;;
47273;SDS011;33007;49.082;19.306;2022-10-31T11:31:24;19.30;;;13.45;;
47273;SDS011;33007;49.082;19.306;2022-10-31T11:33:57;19.75;;;13.68;;
47273;SDS011;33007;49.082;19.306;2022-10-31T11:36:31;18.60;;;13.80;;
47273;SDS011;33007;49.082;19.306;2022-10-31T11:39:01;19.58;;;13.27;;
47273;SDS011;33007;49.082;19.306;2022-10-31T11:41:35;15.55;;;12.63;;
47273;SDS011;33007;49.082;19.306;2022-10-31T11:46:42;22.60;;;13.18;;
47273;SDS011;33007;49.082;19.306;2022-10-31T11:49:28;18.85;;;13.30;;
47273;SDS011;33007;49.082;19.306;2022-10-31T11:52:12;18.95;;;12.77;;
47273;SDS011;33007;49.082;19.306;2022-10-31T11:54:44;18.80;;;12.07;;
47273;SDS011;33007;49.082;19.306;2022-10-31T11:57:21;19.05;;;12.55;;
47273;SDS011;33007;49.082;19.306;2022-10-31T12:02:21;17.92;;;11.93;;
47273;SDS011;33007;49.082;19.306;2022-10-31T12:04:57;19.70;;;12.00;;
47273;SDS011;33007;49.082;19.306;2022-10-31T12:07:29;18.85;;;12.55;;
47273;SDS011;33007;49.082;19.306;2022-10-31T12:09:56;19.02;;;12.32;;
47273;SDS011;33007;49.082;19.306;2022-10-31T12:17:54;16.65;;;11.50;;
47273;SDS011;33007;49.082;19.306;2022-10-31T12:22:57;16.67;;;11.63;;
47273;SDS011;33007;49.082;19.306;2022-10-31T12:25:50;20.15;;;11.95;;
47273;SDS011;33007;49.082;19.306;2022-10-31T12:28:41;16.85;;;12.23;;
47273;SDS011;33007;49.082;19.306;2022-10-31T12:45:44;19.45;;;11.98;;
47273;SDS011;33007;49.082;19.306;2022-10-31T12:51:14;16.20;;;10.73;;
47273;SDS011;33007;49.082;19.306;2022-10-31T12:56:46;25.55;;;11.32;;
47273;SDS011;33007;49.082;19.306;2022-10-31T12:59:37;19.65;;;11.32;;
47273;SDS011;33007;49.082;19.306;2022-10-31T13:07:49;19.92;;;10.80;;
47273;SDS011;33007;49.082;19.306;2022-10-31T13:13:15;21.35;;;12.15;;
47273;SDS011;33007;49.082;19.306;2022-10-31T13:15:47;16.67;;;11.55;;
47273;SDS011;33007;49.082;19.306;2022-10-31T13:21:21;20.40;;;11.30;;
47273;SDS011;33007;49.082;19.306;2022-10-31T13:23:50;17.17;;;10.68;;
47273;SDS011;33007;49.082;19.306;2022-10-31T13:29:18;20.23;;;11.45;;
47273;SDS011;33007;49.082;19.306;2022-10-31T13:31:52;15.45;;;9.77;;
47273;SDS011;33007;49.082;19.306;2022-10-31T13:43:14;16.80;;;10.80;;
47273;SDS011;33007;49.082;19.306;2022-10-31T13:45:58;20.02;;;9.93;;
47273;SDS011;33007;49.082;19.306;2022-10-31T13:48:44;19.63;;;10.55;;
47273;SDS011;33007;49.082;19.306;2022-10-31T13:51:10;17.58;;;11.15;;
47273;SDS011;33007;49.082;19.306;2022-10-31T14:01:31;18.77;;;10.15;;
47273;SDS011;33007;49.082;19.306;2022-10-31T14:04:01;15.77;;;9.93;;
47273;SDS011;33007;49.082;19.306;2022-10-31T14:09:05;16.60;;;10.50;;
47273;SDS011;33007;49.082;19.306;2022-10-31T14:11:40;32.15;;;11.23;;
47273;SDS011;33007;49.082;19.306;2022-10-31T14:14:11;29.10;;;11.18;;
47273;SDS011;33007;49.082;19.306;2022-10-31T14:16:37;17.70;;;10.75;;
47273;SDS011;33007;49.082;19.306;2022-10-31T14:19:17;20.45;;;10.93;;
47273;SDS011;33007;49.082;19.306;2022-10-31T14:21:45;16.73;;;10.23;;
47273;SDS011;33007;49.082;19.306;2022-10-31T14:26:56;19.40;;;10.77;;
47273;SDS011;33007;49.082;19.306;2022-10-31T14:29:24;13.60;;;10.65;;
47273;SDS011;33007;49.082;19.306;2022-10-31T14:31:55;18.17;;;10.65;;
47273;SDS011;33007;49.082;19.306;2022-10-31T14:34:34;18.55;;;11.82;;
47273;SDS011;33007;49.082;19.306;2022-10-31T14:42:59;18.48;;;10.80;;
47273;SDS011;33007;49.082;19.306;2022-10-31T14:48:33;24.58;;;11.38;;
47273;SDS011;33007;49.082;19.306;2022-10-31T14:51:16;14.95;;;9.82;;
47273;SDS011;33007;49.082;19.306;2022-10-31T14:53:47;16.73;;;9.23;;
47273;SDS011;33007;49.082;19.306;2022-10-31T14:56:25;14.73;;;9.13;;
47273;SDS011;33007;49.082;19.306;2022-10-31T14:58:52;32.08;;;9.07;;
47273;SDS011;33007;49.082;19.306;2022-10-31T15:01:26;19.85;;;8.23;;
47273;SDS011;33007;49.082;19.306;2022-10-31T15:03:54;15.10;;;7.72;;
47273;SDS011;33007;49.082;19.306;2022-10-31T15:06:40;10.20;;;7.78;;
47273;SDS011;33007;49.082;19.306;2022-10-31T15:09:23;14.10;;;7.68;;
47273;SDS011;33007;49.082;19.306;2022-10-31T15:11:50;22.52;;;7.90;;
47273;SDS011;33007;49.082;19.306;2022-10-31T15:14:48;12.27;;;6.57;;
47273;SDS011;33007;49.082;19.306;2022-10-31T15:17:08;12.38;;;7.82;;
47273;SDS011;33007;49.082;19.306;2022-10-31T15:19:37;13.13;;;7.50;;
47273;SDS011;33007;49.082;19.306;2022-10-31T15:22:03;30.20;;;8.05;;
47273;SDS011;33007;49.082;19.306;2022-10-31T15:24:35;14.43;;;7.65;;
47273;SDS011;33007;49.082;19.306;2022-10-31T15:27:03;157.90;;;15.77;;
47273;SDS011;33007;49.082;19.306;2022-10-31T15:29:30;15.95;;;7.70;;
47273;SDS011;33007;49.082;19.306;2022-10-31T15:31:57;13.23;;;6.93;;
47273;SDS011;33007;49.082;19.306;2022-10-31T15:34:29;12.50;;;7.88;;
47273;SDS011;33007;49.082;19.306;2022-10-31T15:37:03;13.00;;;7.90;;
47273;SDS011;33007;49.082;19.306;2022-10-31T15:39:28;15.50;;;7.47;;
47273;SDS011;33007;49.082;19.306;2022-10-31T15:41:57;17.17;;;7.80;;
47273;SDS011;33007;49.082;19.306;2022-10-31T15:44:25;21.52;;;7.95;;
47273;SDS011;33007;49.082;19.306;2022-10-31T15:46:57;21.58;;;9.13;;
47273;SDS011;33007;49.082;19.306;2022-10-31T15:49:29;19.42;;;8.40;;
47273;SDS011;33007;49.082;19.306;2022-10-31T15:51:56;26.83;;;9.65;;
47273;SDS011;33007;49.082;19.306;2022-10-31T15:54:25;22.55;;;9.82;;
47273;SDS011;33007;49.082;19.306;2022-10-31T15:56:51;19.38;;;10.25;;
47273;SDS011;33007;49.082;19.306;2022-10-31T15:59:19;19.02;;;11.18;;
47273;SDS011;33007;49.082;19.306;2022-10-31T16:02:01;21.35;;;12.43;;
47273;SDS011;33007;49.082;19.306;2022-10-31T16:04:28;23.17;;;12.48;;
47273;SDS011;33007;49.082;19.306;2022-10-31T16:06:59;23.58;;;12.77;;
47273;SDS011;33007;49.082;19.306;2022-10-31T16:09:47;24.15;;;13.68;;
47273;SDS011;33007;49.082;19.306;2022-10-31T16:12:15;25.48;;;14.07;;
47273;SDS011;33007;49.082;19.306;2022-10-31T16:14:41;24.83;;;14.48;;
47273;SDS011;33007;49.082;19.306;2022-10-31T16:17:10;25.77;;;15.60;;
47273;SDS011;33007;49.082;19.306;2022-10-31T16:19:43;38.75;;;16.65;;
47273;SDS011;33007;49.082;19.306;2022-10-31T16:22:24;34.58;;;16.73;;
47273;SDS011;33007;49.082;19.306;2022-10-31T16:27:37;30.00;;;17.60;;
47273;SDS011;33007;49.082;19.306;2022-10-31T16:33:05;29.35;;;17.17;;
47273;SDS011;33007;49.082;19.306;2022-10-31T16:35:46;27.98;;;17.00;;
47273;SDS011;33007;49.082;19.306;2022-10-31T16:38:13;65.78;;;17.60;;
47273;SDS011;33007;49.082;19.306;2022-10-31T16:40:38;28.02;;;17.02;;
47273;SDS011;33007;49.082;19.306;2022-10-31T16:43:04;27.58;;;17.08;;
47273;SDS011;33007;49.082;19.306;2022-10-31T16:45:34;27.58;;;17.58;;
47273;SDS011;33007;49.082;19.306;2022-10-31T16:48:08;90.18;;;21.17;;
47273;SDS011;33007;49.082;19.306;2022-10-31T16:50:36;25.77;;;17.52;;
47273;SDS011;33007;49.082;19.306;2022-10-31T16:53:02;29.73;;;17.58;;
47273;SDS011;33007;49.082;19.306;2022-10-31T16:55:28;33.40;;;19.27;;
47273;SDS011;33007;49.082;19.306;2022-10-31T16:57:55;31.63;;;18.35;;
47273;SDS011;33007;49.082;19.306;2022-10-31T17:00:22;30.55;;;18.25;;
47273;SDS011;33007;49.082;19.306;2022-10-31T17:02:51;29.92;;;19.15;;
47273;SDS011;33007;49.082;19.306;2022-10-31T17:05:18;31.55;;;18.20;;
47273;SDS011;33007;49.082;19.306;2022-10-31T17:07:46;36.00;;;22.85;;